sensor_id;sensor_type;location;lat;lon;timestamp;P1;durP1;ratioP1;P2;durP2;ratioP2
34924;SDS011;21130;51.728;8.748;2022-11-15T00:01:51;9.43;;;8.13;;
34924;SDS011;21130;51.728;8.748;2022-11-15T00:04:18;9.43;;;7.72;;
34924;SDS011;21130;51.728;8.748;2022-11-15T00:06:44;9.45;;;8.20;;
34924;SDS011;21130;51.728;8.748;2022-11-15T00:09:11;9.13;;;7.95;;
34924;SDS011;21130;51.728;8.748;2022-11-15T00:11:37;8.18;;;7.18;;
34924;SDS011;21130;51.728;8.748;2022-11-15T00:14:04;8.77;;;7.93;;
34924;SDS011;21130;51.728;8.748;2022-11-15T00:16:30;9.98;;;8.55;;
34924;SDS011;21130;51.728;8.748;2022-11-15T00:18:58;11.30;;;8.70;;
34924;SDS011;21130;51.728;8.748;2022-11-15T00:21:25;9.98;;;8.75;;
34924;SDS011;21130;51.728;8.748;2022-11-15T00:23:52;9.68;;;8.32;;
34924;SDS011;21130;51.728;8.748;2022-11-15T00:26:18;10.57;;;8.70;;
34924;SDS011;21130;51.728;8.748;2022-11-15T00:28:45;12.82;;;9.80;;
34924;SDS011;21130;51.728;8.748;2022-11-15T00:31:12;11.98;;;9.50;;
34924;SDS011;21130;51.728;8.748;2022-11-15T00:33:40;11.75;;;9.13;;
34924;SDS011;21130;51.728;8.748;2022-11-15T00:36:10;11.10;;;9.90;;
34924;SDS011;21130;51.728;8.748;2022-11-15T00:38:39;13.20;;;10.20;;
34924;SDS011;21130;51.728;8.748;2022-11-15T00:41:06;14.52;;;11.32;;
34924;SDS011;21130;51.728;8.748;2022-11-15T00:43:34;15.43;;;11.50;;
34924;SDS011;21130;51.728;8.748;2022-11-15T00:46:01;13.38;;;11.68;;
34924;SDS011;21130;51.728;8.748;2022-11-15T00:48:28;16.70;;;11.57;;
34924;SDS011;21130;51.728;8.748;2022-11-15T00:50:54;13.68;;;11.27;;
34924;SDS011;21130;51.728;8.748;2022-11-15T00:53:22;14.70;;;11.82;;
34924;SDS011;21130;51.728;8.748;2022-11-15T00:55:49;14.63;;;11.27;;
34924;SDS011;21130;51.728;8.748;2022-11-15T00:58:16;16.60;;;11.38;;
34924;SDS011;21130;51.728;8.748;2022-11-15T01:00:42;15.70;;;12.10;;
34924;SDS011;21130;51.728;8.748;2022-11-15T01:03:09;17.23;;;12.20;;
34924;SDS011;21130;51.728;8.748;2022-11-15T01:05:36;13.57;;;11.57;;
34924;SDS011;21130;51.728;8.748;2022-11-15T01:08:03;15.77;;;11.73;;
34924;SDS011;21130;51.728;8.748;2022-11-15T01:10:31;17.35;;;11.75;;
34924;SDS011;21130;51.728;8.748;2022-11-15T01:12:58;14.90;;;11.20;;
34924;SDS011;21130;51.728;8.748;2022-11-15T01:15:24;13.38;;;11.60;;
34924;SDS011;21130;51.728;8.748;2022-11-15T01:17:51;15.90;;;11.82;;
34924;SDS011;21130;51.728;8.748;2022-11-15T01:20:17;15.02;;;11.80;;
34924;SDS011;21130;51.728;8.748;2022-11-15T01:22:45;13.65;;;11.85;;
34924;SDS011;21130;51.728;8.748;2022-11-15T01:25:11;15.60;;;11.88;;
34924;SDS011;21130;51.728;8.748;2022-11-15T01:27:39;13.48;;;12.07;;
34924;SDS011;21130;51.728;8.748;2022-11-15T01:30:06;15.48;;;12.50;;
34924;SDS011;21130;51.728;8.748;2022-11-15T01:32:34;15.43;;;12.95;;
34924;SDS011;21130;51.728;8.748;2022-11-15T01:35:00;15.18;;;13.02;;
34924;SDS011;21130;51.728;8.748;2022-11-15T01:37:27;14.40;;;12.90;;
34924;SDS011;21130;51.728;8.748;2022-11-15T01:39:53;15.98;;;13.23;;
34924;SDS011;21130;51.728;8.748;2022-11-15T01:42:20;19.17;;;13.65;;
34924;SDS011;21130;51.728;8.748;2022-11-15T01:44:48;18.38;;;13.65;;
34924;SDS011;21130;51.728;8.748;2022-11-15T01:47:17;16.77;;;14.23;;
34924;SDS011;21130;51.728;8.748;2022-11-15T01:49:49;18.75;;;14.35;;
34924;SDS011;21130;51.728;8.748;2022-11-15T01:52:21;16.90;;;14.82;;
34924;SDS011;21130;51.728;8.748;2022-11-15T01:54:50;21.13;;;16.05;;
34924;SDS011;21130;51.728;8.748;2022-11-15T01:57:22;18.70;;;15.20;;
34924;SDS011;21130;51.728;8.748;2022-11-15T01:59:50;20.95;;;15.80;;
34924;SDS011;21130;51.728;8.748;2022-11-15T02:02:16;19.52;;;15.18;;
34924;SDS011;21130;51.728;8.748;2022-11-15T02:04:44;19.88;;;16.02;;
34924;SDS011;21130;51.728;8.748;2022-11-15T02:07:13;20.15;;;15.60;;
34924;SDS011;21130;51.728;8.748;2022-11-15T02:09:42;20.58;;;15.57;;
34924;SDS011;21130;51.728;8.748;2022-11-15T02:12:10;17.50;;;15.60;;
34924;SDS011;21130;51.728;8.748;2022-11-15T02:14:40;20.73;;;16.23;;
34924;SDS011;21130;51.728;8.748;2022-11-15T02:17:16;19.98;;;16.00;;
34924;SDS011;21130;51.728;8.748;2022-11-15T02:23:13;16.80;;;15.00;;
34924;SDS011;21130;51.728;8.748;2022-11-15T02:26:19;17.98;;;15.98;;
34924;SDS011;21130;51.728;8.748;2022-11-15T02:29:04;18.55;;;15.45;;
34924;SDS011;21130;51.728;8.748;2022-11-15T02:31:39;21.95;;;15.98;;
34924;SDS011;21130;51.728;8.748;2022-11-15T02:34:14;18.10;;;15.60;;
34924;SDS011;21130;51.728;8.748;2022-11-15T02:36:54;20.25;;;15.73;;
34924;SDS011;21130;51.728;8.748;2022-11-15T02:39:28;18.52;;;15.10;;
34924;SDS011;21130;51.728;8.748;2022-11-15T02:42:03;20.40;;;15.23;;
34924;SDS011;21130;51.728;8.748;2022-11-15T02:44:55;17.73;;;14.82;;
34924;SDS011;21130;51.728;8.748;2022-11-15T02:47:25;16.88;;;14.68;;
34924;SDS011;21130;51.728;8.748;2022-11-15T02:49:57;18.75;;;15.48;;
34924;SDS011;21130;51.728;8.748;2022-11-15T02:52:27;19.92;;;15.80;;
34924;SDS011;21130;51.728;8.748;2022-11-15T02:54:54;17.45;;;15.65;;
34924;SDS011;21130;51.728;8.748;2022-11-15T02:57:23;17.02;;;15.10;;
34924;SDS011;21130;51.728;8.748;2022-11-15T03:00:03;20.17;;;16.40;;
34924;SDS011;21130;51.728;8.748;2022-11-15T03:02:38;18.38;;;15.65;;
34924;SDS011;21130;51.728;8.748;2022-11-15T03:05:15;21.30;;;18.67;;
34924;SDS011;21130;51.728;8.748;2022-11-15T03:07:51;21.45;;;19.15;;
34924;SDS011;21130;51.728;8.748;2022-11-15T03:10:24;22.45;;;18.77;;
34924;SDS011;21130;51.728;8.748;2022-11-15T03:12:56;23.60;;;18.88;;
34924;SDS011;21130;51.728;8.748;2022-11-15T03:15:26;21.42;;;18.30;;
34924;SDS011;21130;51.728;8.748;2022-11-15T03:17:59;19.75;;;17.35;;
34924;SDS011;21130;51.728;8.748;2022-11-15T03:20:28;20.48;;;17.98;;
34924;SDS011;21130;51.728;8.748;2022-11-15T03:22:56;19.75;;;16.98;;
34924;SDS011;21130;51.728;8.748;2022-11-15T03:25:30;18.30;;;16.30;;
34924;SDS011;21130;51.728;8.748;2022-11-15T03:28:00;22.13;;;16.73;;
34924;SDS011;21130;51.728;8.748;2022-11-15T03:30:29;18.88;;;15.73;;
34924;SDS011;21130;51.728;8.748;2022-11-15T03:32:59;16.95;;;14.68;;
34924;SDS011;21130;51.728;8.748;2022-11-15T03:35:30;16.77;;;15.02;;
34924;SDS011;21130;51.728;8.748;2022-11-15T03:38:00;16.80;;;14.77;;
34924;SDS011;21130;51.728;8.748;2022-11-15T03:40:36;19.90;;;15.68;;
34924;SDS011;21130;51.728;8.748;2022-11-15T03:43:07;17.30;;;15.43;;
34924;SDS011;21130;51.728;8.748;2022-11-15T03:45:43;19.83;;;14.85;;
34924;SDS011;21130;51.728;8.748;2022-11-15T03:48:14;16.02;;;14.32;;
34924;SDS011;21130;51.728;8.748;2022-11-15T03:50:46;16.38;;;14.20;;
34924;SDS011;21130;51.728;8.748;2022-11-15T03:53:14;20.25;;;14.10;;
34924;SDS011;21130;51.728;8.748;2022-11-15T03:55:41;17.25;;;13.98;;
34924;SDS011;21130;51.728;8.748;2022-11-15T03:58:07;15.13;;;13.52;;
34924;SDS011;21130;51.728;8.748;2022-11-15T04:00:34;16.08;;;13.80;;
34924;SDS011;21130;51.728;8.748;2022-11-15T04:03:01;18.08;;;13.70;;
34924;SDS011;21130;51.728;8.748;2022-11-15T04:05:28;15.07;;;13.00;;
34924;SDS011;21130;51.728;8.748;2022-11-15T04:07:55;16.52;;;14.38;;
34924;SDS011;21130;51.728;8.748;2022-11-15T04:10:22;16.48;;;13.27;;
34924;SDS011;21130;51.728;8.748;2022-11-15T04:12:48;15.75;;;13.55;;
34924;SDS011;21130;51.728;8.748;2022-11-15T04:15:16;15.43;;;13.35;;
34924;SDS011;21130;51.728;8.748;2022-11-15T04:17:44;15.00;;;13.40;;
34924;SDS011;21130;51.728;8.748;2022-11-15T04:20:12;15.65;;;13.50;;
34924;SDS011;21130;51.728;8.748;2022-11-15T04:23:00;16.50;;;13.82;;
34924;SDS011;21130;51.728;8.748;2022-11-15T04:25:47;14.77;;;13.27;;
34924;SDS011;21130;51.728;8.748;2022-11-15T04:28:17;16.90;;;14.00;;
34924;SDS011;21130;51.728;8.748;2022-11-15T04:30:44;14.48;;;12.43;;
34924;SDS011;21130;51.728;8.748;2022-11-15T04:33:10;16.08;;;13.60;;
34924;SDS011;21130;51.728;8.748;2022-11-15T04:35:37;14.50;;;12.93;;
34924;SDS011;21130;51.728;8.748;2022-11-15T04:38:06;13.85;;;12.45;;
34924;SDS011;21130;51.728;8.748;2022-11-15T04:40:34;15.02;;;12.88;;
34924;SDS011;21130;51.728;8.748;2022-11-15T04:43:01;15.18;;;12.80;;
34924;SDS011;21130;51.728;8.748;2022-11-15T04:45:27;13.40;;;12.10;;
34924;SDS011;21130;51.728;8.748;2022-11-15T04:47:54;14.63;;;12.23;;
34924;SDS011;21130;51.728;8.748;2022-11-15T04:50:21;13.07;;;11.68;;
34924;SDS011;21130;51.728;8.748;2022-11-15T04:52:50;13.57;;;11.80;;
34924;SDS011;21130;51.728;8.748;2022-11-15T04:55:19;12.48;;;11.23;;
34924;SDS011;21130;51.728;8.748;2022-11-15T04:57:45;13.95;;;10.80;;
34924;SDS011;21130;51.728;8.748;2022-11-15T05:00:13;15.30;;;11.02;;
34924;SDS011;21130;51.728;8.748;2022-11-15T05:02:42;13.30;;;11.43;;
34924;SDS011;21130;51.728;8.748;2022-11-15T05:05:26;12.93;;;11.63;;
34924;SDS011;21130;51.728;8.748;2022-11-15T05:07:53;11.63;;;10.43;;
34924;SDS011;21130;51.728;8.748;2022-11-15T05:10:21;13.82;;;11.90;;
34924;SDS011;21130;51.728;8.748;2022-11-15T05:12:48;13.48;;;11.75;;
34924;SDS011;21130;51.728;8.748;2022-11-15T05:15:14;11.80;;;10.60;;
34924;SDS011;21130;51.728;8.748;2022-11-15T05:17:41;12.27;;;10.95;;
34924;SDS011;21130;51.728;8.748;2022-11-15T05:20:08;12.20;;;10.93;;
34924;SDS011;21130;51.728;8.748;2022-11-15T05:22:35;12.30;;;11.00;;
34924;SDS011;21130;51.728;8.748;2022-11-15T05:25:01;12.32;;;10.10;;
34924;SDS011;21130;51.728;8.748;2022-11-15T05:27:30;10.13;;;9.23;;
34924;SDS011;21130;51.728;8.748;2022-11-15T05:29:56;10.13;;;8.98;;
34924;SDS011;21130;51.728;8.748;2022-11-15T05:32:23;11.00;;;9.88;;
34924;SDS011;21130;51.728;8.748;2022-11-15T05:34:50;11.02;;;9.32;;
34924;SDS011;21130;51.728;8.748;2022-11-15T05:37:17;11.82;;;10.00;;
34924;SDS011;21130;51.728;8.748;2022-11-15T05:39:44;10.73;;;9.63;;
34924;SDS011;21130;51.728;8.748;2022-11-15T05:42:11;12.10;;;10.40;;
34924;SDS011;21130;51.728;8.748;2022-11-15T05:44:41;12.10;;;9.68;;
34924;SDS011;21130;51.728;8.748;2022-11-15T05:47:11;12.80;;;10.93;;
34924;SDS011;21130;51.728;8.748;2022-11-15T05:49:42;13.70;;;11.57;;
34924;SDS011;21130;51.728;8.748;2022-11-15T05:52:11;14.73;;;12.10;;
34924;SDS011;21130;51.728;8.748;2022-11-15T05:54:41;12.88;;;11.52;;
34924;SDS011;21130;51.728;8.748;2022-11-15T05:57:08;13.70;;;11.77;;
34924;SDS011;21130;51.728;8.748;2022-11-15T05:59:35;14.75;;;12.38;;
34924;SDS011;21130;51.728;8.748;2022-11-15T06:02:03;13.80;;;12.00;;
34924;SDS011;21130;51.728;8.748;2022-11-15T06:04:30;13.05;;;11.55;;
34924;SDS011;21130;51.728;8.748;2022-11-15T06:06:57;13.18;;;11.77;;
34924;SDS011;21130;51.728;8.748;2022-11-15T06:09:24;14.32;;;11.60;;
34924;SDS011;21130;51.728;8.748;2022-11-15T06:11:51;12.30;;;11.00;;
34924;SDS011;21130;51.728;8.748;2022-11-15T06:14:18;13.73;;;11.10;;
34924;SDS011;21130;51.728;8.748;2022-11-15T06:16:44;14.45;;;10.75;;
34924;SDS011;21130;51.728;8.748;2022-11-15T06:19:12;11.23;;;10.05;;
34924;SDS011;21130;51.728;8.748;2022-11-15T06:21:39;11.75;;;10.13;;
34924;SDS011;21130;51.728;8.748;2022-11-15T06:24:06;11.10;;;9.93;;
34924;SDS011;21130;51.728;8.748;2022-11-15T06:26:33;11.23;;;9.60;;
34924;SDS011;21130;51.728;8.748;2022-11-15T06:28:59;11.57;;;10.38;;
34924;SDS011;21130;51.728;8.748;2022-11-15T06:31:26;10.88;;;9.77;;
34924;SDS011;21130;51.728;8.748;2022-11-15T06:33:53;12.95;;;10.30;;
34924;SDS011;21130;51.728;8.748;2022-11-15T06:36:21;11.38;;;10.18;;
34924;SDS011;21130;51.728;8.748;2022-11-15T06:38:47;14.23;;;10.15;;
34924;SDS011;21130;51.728;8.748;2022-11-15T06:41:14;9.82;;;8.90;;
34924;SDS011;21130;51.728;8.748;2022-11-15T06:43:41;14.48;;;9.77;;
34924;SDS011;21130;51.728;8.748;2022-11-15T06:46:08;14.77;;;9.82;;
34924;SDS011;21130;51.728;8.748;2022-11-15T06:48:35;20.85;;;12.35;;
34924;SDS011;21130;51.728;8.748;2022-11-15T06:57:18;11.77;;;10.07;;
34924;SDS011;21130;51.728;8.748;2022-11-15T06:59:44;15.75;;;10.00;;
34924;SDS011;21130;51.728;8.748;2022-11-15T07:02:11;13.07;;;10.07;;
34924;SDS011;21130;51.728;8.748;2022-11-15T07:04:39;13.60;;;10.10;;
34924;SDS011;21130;51.728;8.748;2022-11-15T07:07:05;10.25;;;9.18;;
34924;SDS011;21130;51.728;8.748;2022-11-15T07:09:32;10.88;;;9.77;;
34924;SDS011;21130;51.728;8.748;2022-11-15T07:11:58;10.45;;;8.55;;
34924;SDS011;21130;51.728;8.748;2022-11-15T07:14:26;10.57;;;9.48;;
34924;SDS011;21130;51.728;8.748;2022-11-15T07:16:53;9.13;;;8.15;;
34924;SDS011;21130;51.728;8.748;2022-11-15T07:19:19;9.85;;;8.20;;
34924;SDS011;21130;51.728;8.748;2022-11-15T07:21:46;9.57;;;8.57;;
34924;SDS011;21130;51.728;8.748;2022-11-15T07:24:12;9.32;;;7.75;;
34924;SDS011;21130;51.728;8.748;2022-11-15T07:26:39;10.27;;;7.88;;
34924;SDS011;21130;51.728;8.748;2022-11-15T07:29:06;11.10;;;8.35;;
34924;SDS011;21130;51.728;8.748;2022-11-15T07:31:34;10.20;;;7.43;;
34924;SDS011;21130;51.728;8.748;2022-11-15T07:34:00;7.82;;;7.10;;
34924;SDS011;21130;51.728;8.748;2022-11-15T07:36:27;8.55;;;7.65;;
34924;SDS011;21130;51.728;8.748;2022-11-15T07:38:54;8.38;;;7.28;;
34924;SDS011;21130;51.728;8.748;2022-11-15T07:41:20;9.73;;;7.35;;
34924;SDS011;21130;51.728;8.748;2022-11-15T07:43:47;8.82;;;7.22;;
34924;SDS011;21130;51.728;8.748;2022-11-15T07:46:16;8.30;;;6.93;;
34924;SDS011;21130;51.728;8.748;2022-11-15T07:48:44;8.55;;;6.80;;
34924;SDS011;21130;51.728;8.748;2022-11-15T07:51:11;7.88;;;6.28;;
34924;SDS011;21130;51.728;8.748;2022-11-15T07:53:39;6.95;;;6.35;;
34924;SDS011;21130;51.728;8.748;2022-11-15T07:56:05;7.60;;;6.35;;
34924;SDS011;21130;51.728;8.748;2022-11-15T07:58:34;6.53;;;5.63;;
34924;SDS011;21130;51.728;8.748;2022-11-15T08:01:02;5.88;;;4.90;;
34924;SDS011;21130;51.728;8.748;2022-11-15T08:03:29;5.80;;;4.55;;
34924;SDS011;21130;51.728;8.748;2022-11-15T08:05:56;5.03;;;4.10;;
34924;SDS011;21130;51.728;8.748;2022-11-15T08:08:23;5.78;;;4.25;;
34924;SDS011;21130;51.728;8.748;2022-11-15T08:10:50;4.88;;;4.18;;
34924;SDS011;21130;51.728;8.748;2022-11-15T08:13:16;6.45;;;3.72;;
34924;SDS011;21130;51.728;8.748;2022-11-15T08:15:43;3.80;;;3.42;;
34924;SDS011;21130;51.728;8.748;2022-11-15T08:18:10;4.88;;;3.50;;
34924;SDS011;21130;51.728;8.748;2022-11-15T08:20:38;3.60;;;3.30;;
34924;SDS011;21130;51.728;8.748;2022-11-15T08:23:06;4.75;;;3.70;;
34924;SDS011;21130;51.728;8.748;2022-11-15T08:25:34;3.20;;;2.90;;
34924;SDS011;21130;51.728;8.748;2022-11-15T08:28:02;4.35;;;3.95;;
34924;SDS011;21130;51.728;8.748;2022-11-15T08:30:30;5.22;;;3.95;;
34924;SDS011;21130;51.728;8.748;2022-11-15T08:33:01;5.45;;;4.50;;
34924;SDS011;21130;51.728;8.748;2022-11-15T08:35:28;6.65;;;5.85;;
34924;SDS011;21130;51.728;8.748;2022-11-15T08:37:55;11.00;;;9.75;;
34924;SDS011;21130;51.728;8.748;2022-11-15T08:40:23;6.63;;;5.00;;
34924;SDS011;21130;51.728;8.748;2022-11-15T08:42:49;5.32;;;4.57;;
34924;SDS011;21130;51.728;8.748;2022-11-15T08:45:16;6.18;;;4.63;;
34924;SDS011;21130;51.728;8.748;2022-11-15T08:47:42;12.35;;;5.40;;
34924;SDS011;21130;51.728;8.748;2022-11-15T08:50:10;7.07;;;4.68;;
34924;SDS011;21130;51.728;8.748;2022-11-15T08:52:37;5.40;;;4.72;;
34924;SDS011;21130;51.728;8.748;2022-11-15T08:55:03;6.13;;;4.72;;
34924;SDS011;21130;51.728;8.748;2022-11-15T08:57:32;6.07;;;5.00;;
34924;SDS011;21130;51.728;8.748;2022-11-15T09:00:00;6.50;;;4.85;;
34924;SDS011;21130;51.728;8.748;2022-11-15T09:02:27;5.43;;;4.93;;
34924;SDS011;21130;51.728;8.748;2022-11-15T09:04:53;5.85;;;4.75;;
34924;SDS011;21130;51.728;8.748;2022-11-15T09:07:20;6.15;;;4.90;;
34924;SDS011;21130;51.728;8.748;2022-11-15T09:09:46;6.45;;;5.10;;
34924;SDS011;21130;51.728;8.748;2022-11-15T09:12:13;6.60;;;4.75;;
34924;SDS011;21130;51.728;8.748;2022-11-15T09:14:41;5.00;;;4.35;;
34924;SDS011;21130;51.728;8.748;2022-11-15T09:17:08;4.07;;;3.70;;
34924;SDS011;21130;51.728;8.748;2022-11-15T09:19:34;5.50;;;4.28;;
34924;SDS011;21130;51.728;8.748;2022-11-15T09:22:01;4.25;;;3.65;;
34924;SDS011;21130;51.728;8.748;2022-11-15T09:24:31;5.28;;;3.47;;
34924;SDS011;21130;51.728;8.748;2022-11-15T09:26:58;4.38;;;3.63;;
34924;SDS011;21130;51.728;8.748;2022-11-15T09:29:25;4.72;;;3.70;;
34924;SDS011;21130;51.728;8.748;2022-11-15T09:31:53;3.67;;;3.35;;
34924;SDS011;21130;51.728;8.748;2022-11-15T09:34:20;3.50;;;3.20;;
34924;SDS011;21130;51.728;8.748;2022-11-15T09:36:47;5.13;;;3.38;;
34924;SDS011;21130;51.728;8.748;2022-11-15T09:39:13;4.78;;;3.05;;
34924;SDS011;21130;51.728;8.748;2022-11-15T09:41:48;4.80;;;4.30;;
34924;SDS011;21130;51.728;8.748;2022-11-15T09:44:24;4.03;;;2.97;;
34924;SDS011;21130;51.728;8.748;2022-11-15T09:47:06;3.35;;;2.13;;
34924;SDS011;21130;51.728;8.748;2022-11-15T09:49:45;4.82;;;2.15;;
34924;SDS011;21130;51.728;8.748;2022-11-15T09:52:12;4.65;;;2.08;;
34924;SDS011;21130;51.728;8.748;2022-11-15T09:54:41;4.13;;;2.08;;
34924;SDS011;21130;51.728;8.748;2022-11-15T09:57:12;8.68;;;2.60;;
34924;SDS011;21130;51.728;8.748;2022-11-15T09:59:44;2.50;;;1.95;;
34924;SDS011;21130;51.728;8.748;2022-11-15T10:02:22;2.22;;;1.77;;
34924;SDS011;21130;51.728;8.748;2022-11-15T10:05:04;4.45;;;1.90;;
34924;SDS011;21130;51.728;8.748;2022-11-15T10:07:37;4.82;;;2.00;;
34924;SDS011;21130;51.728;8.748;2022-11-15T10:10:11;3.10;;;1.65;;
34924;SDS011;21130;51.728;8.748;2022-11-15T10:12:47;3.88;;;1.80;;
34924;SDS011;21130;51.728;8.748;2022-11-15T10:15:17;3.38;;;1.50;;
34924;SDS011;21130;51.728;8.748;2022-11-15T10:20:42;2.03;;;1.10;;
34924;SDS011;21130;51.728;8.748;2022-11-15T10:23:14;2.03;;;1.27;;
34924;SDS011;21130;51.728;8.748;2022-11-15T10:25:43;1.40;;;1.00;;
34924;SDS011;21130;51.728;8.748;2022-11-15T10:28:11;2.90;;;1.20;;
34924;SDS011;21130;51.728;8.748;2022-11-15T10:30:41;3.22;;;1.40;;
34924;SDS011;21130;51.728;8.748;2022-11-15T10:33:23;3.72;;;1.50;;
34924;SDS011;21130;51.728;8.748;2022-11-15T10:38:55;1.48;;;1.30;;
34924;SDS011;21130;51.728;8.748;2022-11-15T10:41:29;2.13;;;1.20;;
34924;SDS011;21130;51.728;8.748;2022-11-15T10:44:07;1.60;;;1.27;;
34924;SDS011;21130;51.728;8.748;2022-11-15T10:46:39;2.22;;;1.50;;
34924;SDS011;21130;51.728;8.748;2022-11-15T10:49:14;1.73;;;1.35;;
34924;SDS011;21130;51.728;8.748;2022-11-15T10:51:43;1.73;;;1.10;;
34924;SDS011;21130;51.728;8.748;2022-11-15T10:54:12;1.67;;;1.25;;
34924;SDS011;21130;51.728;8.748;2022-11-15T10:56:48;2.40;;;1.40;;
34924;SDS011;21130;51.728;8.748;2022-11-15T10:59:17;1.40;;;1.25;;
34924;SDS011;21130;51.728;8.748;2022-11-15T11:01:49;1.75;;;1.60;;
34924;SDS011;21130;51.728;8.748;2022-11-15T11:04:17;2.80;;;1.35;;
34924;SDS011;21130;51.728;8.748;2022-11-15T11:06:48;1.90;;;1.30;;
34924;SDS011;21130;51.728;8.748;2022-11-15T11:09:23;2.03;;;1.38;;
34924;SDS011;21130;51.728;8.748;2022-11-15T11:11:56;1.65;;;1.52;;
34924;SDS011;21130;51.728;8.748;2022-11-15T11:14:23;5.03;;;1.67;;
34924;SDS011;21130;51.728;8.748;2022-11-15T11:16:53;1.88;;;1.50;;
34924;SDS011;21130;51.728;8.748;2022-11-15T11:19:34;1.40;;;1.30;;
34924;SDS011;21130;51.728;8.748;2022-11-15T11:22:16;2.75;;;1.50;;
34924;SDS011;21130;51.728;8.748;2022-11-15T11:24:51;1.33;;;1.15;;
34924;SDS011;21130;51.728;8.748;2022-11-15T11:27:32;3.33;;;1.42;;
34924;SDS011;21130;51.728;8.748;2022-11-15T11:30:10;1.83;;;1.30;;
34924;SDS011;21130;51.728;8.748;2022-11-15T11:35:38;2.08;;;1.23;;
34924;SDS011;21130;51.728;8.748;2022-11-15T11:38:32;1.50;;;1.38;;
34924;SDS011;21130;51.728;8.748;2022-11-15T11:41:07;1.80;;;1.15;;
34924;SDS011;21130;51.728;8.748;2022-11-15T11:43:47;1.85;;;1.17;;
34924;SDS011;21130;51.728;8.748;2022-11-15T11:46:25;1.95;;;1.52;;
34924;SDS011;21130;51.728;8.748;2022-11-15T11:49:04;3.30;;;1.33;;
34924;SDS011;21130;51.728;8.748;2022-11-15T11:51:38;2.47;;;1.60;;
34924;SDS011;21130;51.728;8.748;2022-11-15T11:54:12;4.60;;;1.38;;
34924;SDS011;21130;51.728;8.748;2022-11-15T11:56:50;1.73;;;1.52;;
34924;SDS011;21130;51.728;8.748;2022-11-15T11:59:29;2.58;;;1.85;;
34924;SDS011;21130;51.728;8.748;2022-11-15T12:02:09;2.05;;;1.80;;
34924;SDS011;21130;51.728;8.748;2022-11-15T12:04:43;4.18;;;2.05;;
34924;SDS011;21130;51.728;8.748;2022-11-15T12:07:17;2.80;;;1.95;;
34924;SDS011;21130;51.728;8.748;2022-11-15T12:09:51;1.95;;;1.85;;
34924;SDS011;21130;51.728;8.748;2022-11-15T12:12:25;2.67;;;1.90;;
34924;SDS011;21130;51.728;8.748;2022-11-15T12:14:57;2.28;;;1.85;;
34924;SDS011;21130;51.728;8.748;2022-11-15T12:17:29;1.92;;;1.73;;
34924;SDS011;21130;51.728;8.748;2022-11-15T12:19:57;1.67;;;1.50;;
34924;SDS011;21130;51.728;8.748;2022-11-15T12:22:28;2.30;;;2.10;;
34924;SDS011;21130;51.728;8.748;2022-11-15T12:25:03;3.53;;;2.03;;
34924;SDS011;21130;51.728;8.748;2022-11-15T12:27:57;2.65;;;1.88;;
34924;SDS011;21130;51.728;8.748;2022-11-15T12:30:38;2.00;;;1.77;;
34924;SDS011;21130;51.728;8.748;2022-11-15T12:36:00;2.38;;;2.17;;
34924;SDS011;21130;51.728;8.748;2022-11-15T12:41:21;5.55;;;1.92;;
34924;SDS011;21130;51.728;8.748;2022-11-15T12:43:48;3.88;;;2.25;;
34924;SDS011;21130;51.728;8.748;2022-11-15T12:46:20;2.30;;;2.10;;
34924;SDS011;21130;51.728;8.748;2022-11-15T12:48:52;3.10;;;2.13;;
34924;SDS011;21130;51.728;8.748;2022-11-15T13:06:38;2.50;;;2.28;;
34924;SDS011;21130;51.728;8.748;2022-11-15T13:12:07;2.90;;;2.03;;
34924;SDS011;21130;51.728;8.748;2022-11-15T13:14:48;2.80;;;1.98;;
34924;SDS011;21130;51.728;8.748;2022-11-15T13:17:27;2.72;;;2.03;;
34924;SDS011;21130;51.728;8.748;2022-11-15T13:19:58;2.20;;;1.88;;
34924;SDS011;21130;51.728;8.748;2022-11-15T13:22:37;3.80;;;2.10;;
34924;SDS011;21130;51.728;8.748;2022-11-15T13:25:21;2.25;;;1.83;;
34924;SDS011;21130;51.728;8.748;2022-11-15T13:28:10;3.30;;;2.05;;
34924;SDS011;21130;51.728;8.748;2022-11-15T13:30:48;2.42;;;1.90;;
34924;SDS011;21130;51.728;8.748;2022-11-15T13:33:17;3.70;;;1.92;;
34924;SDS011;21130;51.728;8.748;2022-11-15T13:35:45;3.28;;;2.38;;
34924;SDS011;21130;51.728;8.748;2022-11-15T13:38:18;4.43;;;1.88;;
34924;SDS011;21130;51.728;8.748;2022-11-15T13:40:51;3.78;;;1.90;;
34924;SDS011;21130;51.728;8.748;2022-11-15T13:43:31;5.90;;;1.67;;
34924;SDS011;21130;51.728;8.748;2022-11-15T13:46:05;3.45;;;1.70;;
34924;SDS011;21130;51.728;8.748;2022-11-15T13:48:32;3.65;;;1.60;;
34924;SDS011;21130;51.728;8.748;2022-11-15T13:50:59;2.05;;;1.75;;
34924;SDS011;21130;51.728;8.748;2022-11-15T13:53:29;3.05;;;1.65;;
34924;SDS011;21130;51.728;8.748;2022-11-15T13:55:57;1.58;;;1.48;;
34924;SDS011;21130;51.728;8.748;2022-11-15T13:58:25;2.53;;;1.67;;
34924;SDS011;21130;51.728;8.748;2022-11-15T14:00:58;1.83;;;1.50;;
34924;SDS011;21130;51.728;8.748;2022-11-15T14:03:27;2.15;;;1.60;;
34924;SDS011;21130;51.728;8.748;2022-11-15T14:06:02;1.70;;;1.50;;
34924;SDS011;21130;51.728;8.748;2022-11-15T14:08:32;5.13;;;1.65;;
34924;SDS011;21130;51.728;8.748;2022-11-15T14:11:12;2.30;;;1.50;;
34924;SDS011;21130;51.728;8.748;2022-11-15T14:13:42;1.80;;;1.58;;
34924;SDS011;21130;51.728;8.748;2022-11-15T14:16:33;2.67;;;1.30;;
34924;SDS011;21130;51.728;8.748;2022-11-15T14:19:01;3.22;;;2.00;;
34924;SDS011;21130;51.728;8.748;2022-11-15T14:21:29;1.60;;;1.50;;
34924;SDS011;21130;51.728;8.748;2022-11-15T14:26:42;4.10;;;1.67;;
34924;SDS011;21130;51.728;8.748;2022-11-15T14:29:22;1.92;;;1.70;;
34924;SDS011;21130;51.728;8.748;2022-11-15T14:31:49;2.78;;;1.50;;
34924;SDS011;21130;51.728;8.748;2022-11-15T14:34:16;3.78;;;1.40;;
34924;SDS011;21130;51.728;8.748;2022-11-15T14:36:43;2.40;;;1.80;;
34924;SDS011;21130;51.728;8.748;2022-11-15T14:39:09;4.50;;;1.40;;
34924;SDS011;21130;51.728;8.748;2022-11-15T14:41:37;2.25;;;1.50;;
34924;SDS011;21130;51.728;8.748;2022-11-15T14:44:24;1.77;;;1.42;;
34924;SDS011;21130;51.728;8.748;2022-11-15T14:47:11;2.60;;;1.23;;
34924;SDS011;21130;51.728;8.748;2022-11-15T14:49:58;1.73;;;1.20;;
34924;SDS011;21130;51.728;8.748;2022-11-15T14:52:27;1.48;;;1.38;;
34924;SDS011;21130;51.728;8.748;2022-11-15T14:54:59;1.90;;;1.48;;
34924;SDS011;21130;51.728;8.748;2022-11-15T14:57:28;1.95;;;1.63;;
34924;SDS011;21130;51.728;8.748;2022-11-15T15:00:14;1.60;;;1.50;;
34924;SDS011;21130;51.728;8.748;2022-11-15T15:02:43;2.40;;;1.52;;
34924;SDS011;21130;51.728;8.748;2022-11-15T15:05:14;2.00;;;1.65;;
34924;SDS011;21130;51.728;8.748;2022-11-15T15:07:42;2.13;;;1.70;;
34924;SDS011;21130;51.728;8.748;2022-11-15T15:10:09;2.67;;;1.60;;
34924;SDS011;21130;51.728;8.748;2022-11-15T15:12:38;2.05;;;1.85;;
34924;SDS011;21130;51.728;8.748;2022-11-15T15:15:05;2.72;;;1.25;;
34924;SDS011;21130;51.728;8.748;2022-11-15T15:17:37;2.30;;;1.60;;
34924;SDS011;21130;51.728;8.748;2022-11-15T15:20:04;2.50;;;1.33;;
34924;SDS011;21130;51.728;8.748;2022-11-15T15:22:31;4.43;;;1.98;;
34924;SDS011;21130;51.728;8.748;2022-11-15T15:24:58;2.47;;;1.33;;
34924;SDS011;21130;51.728;8.748;2022-11-15T15:27:25;2.55;;;1.83;;
34924;SDS011;21130;51.728;8.748;2022-11-15T15:29:53;3.15;;;1.50;;
34924;SDS011;21130;51.728;8.748;2022-11-15T15:32:19;1.58;;;1.48;;
34924;SDS011;21130;51.728;8.748;2022-11-15T15:34:46;3.30;;;1.58;;
34924;SDS011;21130;51.728;8.748;2022-11-15T15:37:18;1.63;;;1.52;;
34924;SDS011;21130;51.728;8.748;2022-11-15T15:39:49;1.98;;;1.85;;